sensor_id;sensor_type;location;lat;lon;timestamp;temperature;humidity
431;DHT22;202;48.764;9.172;2023-07-31T00:15:17;18.50;53.00
431;DHT22;202;48.764;9.172;2023-07-31T00:17:44;18.30;55.10
431;DHT22;202;48.764;9.172;2023-07-31T00:20:12;18.60;56.20
431;DHT22;202;48.764;9.172;2023-07-31T00:22:40;18.80;55.60
431;DHT22;202;48.764;9.172;2023-07-31T00:25:07;18.60;55.40
431;DHT22;202;48.764;9.172;2023-07-31T00:27:37;18.70;53.80
431;DHT22;202;48.764;9.172;2023-07-31T00:30:10;18.80;56.90
431;DHT22;202;48.764;9.172;2023-07-31T00:49:40;18.20;54.80
431;DHT22;202;48.764;9.172;2023-07-31T00:52:50;17.90;54.80
431;DHT22;202;48.764;9.172;2023-07-31T00:55:18;18.80;55.90
431;DHT22;202;48.764;9.172;2023-07-31T00:57:59;18.00;58.90
431;DHT22;202;48.764;9.172;2023-07-31T01:00:28;18.70;59.10
431;DHT22;202;48.764;9.172;2023-07-31T01:02:56;18.80;58.80
431;DHT22;202;48.764;9.172;2023-07-31T01:05:46;17.80;58.40
431;DHT22;202;48.764;9.172;2023-07-31T01:08:21;18.10;56.60
431;DHT22;202;48.764;9.172;2023-07-31T01:10:56;18.00;56.10
431;DHT22;202;48.764;9.172;2023-07-31T01:13:25;18.30;56.80
431;DHT22;202;48.764;9.172;2023-07-31T01:15:53;17.80;57.10
431;DHT22;202;48.764;9.172;2023-07-31T01:18:20;17.90;58.90
431;DHT22;202;48.764;9.172;2023-07-31T01:20:54;17.80;57.30
431;DHT22;202;48.764;9.172;2023-07-31T01:23:46;17.90;57.70
431;DHT22;202;48.764;9.172;2023-07-31T01:26:22;17.50;57.90
431;DHT22;202;48.764;9.172;2023-07-31T01:28:56;17.80;58.80
431;DHT22;202;48.764;9.172;2023-07-31T01:31:25;18.00;59.40
431;DHT22;202;48.764;9.172;2023-07-31T01:33:54;17.50;58.70
431;DHT22;202;48.764;9.172;2023-07-31T01:36:23;17.50;59.70
431;DHT22;202;48.764;9.172;2023-07-31T01:38:50;17.50;59.70
431;DHT22;202;48.764;9.172;2023-07-31T01:41:19;17.50;59.90
431;DHT22;202;48.764;9.172;2023-07-31T01:43:46;17.60;58.20
431;DHT22;202;48.764;9.172;2023-07-31T01:46:13;17.40;58.90
431;DHT22;202;48.764;9.172;2023-07-31T01:48:40;17.80;59.90
431;DHT22;202;48.764;9.172;2023-07-31T01:51:07;17.70;62.10
431;DHT22;202;48.764;9.172;2023-07-31T01:53:34;17.60;60.90
431;DHT22;202;48.764;9.172;2023-07-31T01:56:01;18.10;61.00
431;DHT22;202;48.764;9.172;2023-07-31T01:58:30;18.30;60.80
431;DHT22;202;48.764;9.172;2023-07-31T02:00:57;18.00;62.80
431;DHT22;202;48.764;9.172;2023-07-31T02:03:24;17.60;61.10
431;DHT22;202;48.764;9.172;2023-07-31T02:05:51;17.80;61.60
431;DHT22;202;48.764;9.172;2023-07-31T02:08:18;17.60;60.00
431;DHT22;202;48.764;9.172;2023-07-31T02:10:45;17.80;61.80
431;DHT22;202;48.764;9.172;2023-07-31T02:13:12;18.10;62.10
431;DHT22;202;48.764;9.172;2023-07-31T02:15:40;17.40;61.50
431;DHT22;202;48.764;9.172;2023-07-31T02:18:07;17.40;61.20
431;DHT22;202;48.764;9.172;2023-07-31T02:20:34;17.50;61.90
431;DHT22;202;48.764;9.172;2023-07-31T02:23:02;17.80;61.50
431;DHT22;202;48.764;9.172;2023-07-31T02:25:32;17.90;60.60
431;DHT22;202;48.764;9.172;2023-07-31T02:27:59;17.60;61.00
431;DHT22;202;48.764;9.172;2023-07-31T02:30:28;17.60;65.50
431;DHT22;202;48.764;9.172;2023-07-31T02:32:58;17.30;63.30
431;DHT22;202;48.764;9.172;2023-07-31T02:35:32;17.50;62.20
431;DHT22;202;48.764;9.172;2023-07-31T02:37:59;17.40;63.80
431;DHT22;202;48.764;9.172;2023-07-31T02:40:26;17.70;62.60
431;DHT22;202;48.764;9.172;2023-07-31T02:42:53;17.30;63.30
431;DHT22;202;48.764;9.172;2023-07-31T02:45:20;17.60;62.10
431;DHT22;202;48.764;9.172;2023-07-31T02:47:47;17.70;60.50
431;DHT22;202;48.764;9.172;2023-07-31T02:50:15;17.80;60.60
431;DHT22;202;48.764;9.172;2023-07-31T02:53:13;17.60;59.90
431;DHT22;202;48.764;9.172;2023-07-31T05:16:22;18.80;55.10
431;DHT22;202;48.764;9.172;2023-07-31T05:45:47;19.10;57.60
431;DHT22;202;48.764;9.172;2023-07-31T05:48:15;19.20;58.10
431;DHT22;202;48.764;9.172;2023-07-31T05:50:43;18.00;56.40
431;DHT22;202;48.764;9.172;2023-07-31T05:53:10;19.20;56.50
431;DHT22;202;48.764;9.172;2023-07-31T05:55:37;19.10;57.40
431;DHT22;202;48.764;9.172;2023-07-31T17:48:38;23.70;44.60
431;DHT22;202;48.764;9.172;2023-07-31T17:54:43;24.30;44.70
431;DHT22;202;48.764;9.172;2023-07-31T17:57:31;24.10;46.50
431;DHT22;202;48.764;9.172;2023-07-31T18:00:01;23.80;44.40
431;DHT22;202;48.764;9.172;2023-07-31T18:02:45;24.10;45.70
431;DHT22;202;48.764;9.172;2023-07-31T18:54:03;23.20;58.70
431;DHT22;202;48.764;9.172;2023-07-31T18:56:33;23.40;56.20
431;DHT22;202;48.764;9.172;2023-07-31T18:59:05;23.80;59.20
431;DHT22;202;48.764;9.172;2023-07-31T19:01:32;23.60;58.90
431;DHT22;202;48.764;9.172;2023-07-31T19:03:59;23.40;62.20
431;DHT22;202;48.764;9.172;2023-07-31T19:06:30;23.10;63.10
431;DHT22;202;48.764;9.172;2023-07-31T19:08:57;23.30;66.90
431;DHT22;202;48.764;9.172;2023-07-31T19:11:24;23.20;64.00
431;DHT22;202;48.764;9.172;2023-07-31T19:13:53;23.00;68.60
431;DHT22;202;48.764;9.172;2023-07-31T19:16:21;22.70;71.50
431;DHT22;202;48.764;9.172;2023-07-31T19:18:52;22.80;71.10
431;DHT22;202;48.764;9.172;2023-07-31T19:21:19;22.90;69.50
431;DHT22;202;48.764;9.172;2023-07-31T19:23:52;22.60;67.40
431;DHT22;202;48.764;9.172;2023-07-31T19:26:19;23.10;67.10
431;DHT22;202;48.764;9.172;2023-07-31T19:28:46;22.40;69.90
431;DHT22;202;48.764;9.172;2023-07-31T19:31:14;22.40;69.90
431;DHT22;202;48.764;9.172;2023-07-31T19:33:42;22.20;70.30
431;DHT22;202;48.764;9.172;2023-07-31T19:36:09;21.90;72.30
431;DHT22;202;48.764;9.172;2023-07-31T19:38:36;22.00;73.60
431;DHT22;202;48.764;9.172;2023-07-31T19:41:03;21.80;72.20
431;DHT22;202;48.764;9.172;2023-07-31T19:48:26;21.50;78.90
431;DHT22;202;48.764;9.172;2023-07-31T19:50:54;21.50;78.90
431;DHT22;202;48.764;9.172;2023-07-31T19:53:23;21.80;79.10
431;DHT22;202;48.764;9.172;2023-07-31T19:55:53;21.70;79.10
431;DHT22;202;48.764;9.172;2023-07-31T19:58:22;21.60;79.40
431;DHT22;202;48.764;9.172;2023-07-31T20:03:16;21.60;82.30
431;DHT22;202;48.764;9.172;2023-07-31T20:05:43;21.30;84.40
431;DHT22;202;48.764;9.172;2023-07-31T20:08:30;21.50;82.40
431;DHT22;202;48.764;9.172;2023-07-31T20:10:59;21.00;83.20
431;DHT22;202;48.764;9.172;2023-07-31T20:13:26;20.90;84.50
431;DHT22;202;48.764;9.172;2023-07-31T20:15:53;20.90;85.60
431;DHT22;202;48.764;9.172;2023-07-31T20:18:20;21.10;85.50
431;DHT22;202;48.764;9.172;2023-07-31T20:20:46;20.90;84.10
431;DHT22;202;48.764;9.172;2023-07-31T20:23:14;20.60;85.00
431;DHT22;202;48.764;9.172;2023-07-31T20:25:42;20.60;83.50
431;DHT22;202;48.764;9.172;2023-07-31T20:28:09;20.70;84.30
431;DHT22;202;48.764;9.172;2023-07-31T20:30:36;20.70;85.40
431;DHT22;202;48.764;9.172;2023-07-31T20:33:06;21.20;89.30
431;DHT22;202;48.764;9.172;2023-07-31T20:35:33;20.80;88.30
431;DHT22;202;48.764;9.172;2023-07-31T20:38:02;20.50;88.40
431;DHT22;202;48.764;9.172;2023-07-31T20:40:31;20.70;90.30
431;DHT22;202;48.764;9.172;2023-07-31T20:43:00;20.40;88.80
431;DHT22;202;48.764;9.172;2023-07-31T20:45:28;20.50;89.60
431;DHT22;202;48.764;9.172;2023-07-31T20:48:02;20.60;90.30
431;DHT22;202;48.764;9.172;2023-07-31T20:50:29;20.10;89.60
431;DHT22;202;48.764;9.172;2023-07-31T20:53:01;20.60;90.20
431;DHT22;202;48.764;9.172;2023-07-31T20:55:28;20.50;90.00
431;DHT22;202;48.764;9.172;2023-07-31T20:57:55;20.30;89.30
431;DHT22;202;48.764;9.172;2023-07-31T21:00:23;20.40;90.10
431;DHT22;202;48.764;9.172;2023-07-31T21:02:50;20.30;91.30
431;DHT22;202;48.764;9.172;2023-07-31T21:05:17;20.30;91.00
431;DHT22;202;48.764;9.172;2023-07-31T21:10:12;20.40;92.00
431;DHT22;202;48.764;9.172;2023-07-31T21:12:39;20.50;92.50
431;DHT22;202;48.764;9.172;2023-07-31T21:15:07;20.50;91.50
431;DHT22;202;48.764;9.172;2023-07-31T21:17:37;20.40;91.00
431;DHT22;202;48.764;9.172;2023-07-31T21:20:05;20.70;91.40
431;DHT22;202;48.764;9.172;2023-07-31T21:22:33;20.50;91.00
431;DHT22;202;48.764;9.172;2023-07-31T21:25:00;20.40;89.50
431;DHT22;202;48.764;9.172;2023-07-31T21:27:28;20.40;90.10
431;DHT22;202;48.764;9.172;2023-07-31T21:29:55;20.40;88.30
431;DHT22;202;48.764;9.172;2023-07-31T21:32:23;20.50;87.50
431;DHT22;202;48.764;9.172;2023-07-31T21:34:52;20.80;89.00
431;DHT22;202;48.764;9.172;2023-07-31T21:37:19;20.40;87.50
431;DHT22;202;48.764;9.172;2023-07-31T21:39:46;20.50;86.10
431;DHT22;202;48.764;9.172;2023-07-31T21:42:13;20.30;83.70
431;DHT22;202;48.764;9.172;2023-07-31T21:44:43;20.40;81.00
431;DHT22;202;48.764;9.172;2023-07-31T21:47:11;20.30;84.20
431;DHT22;202;48.764;9.172;2023-07-31T21:49:38;20.50;83.60
431;DHT22;202;48.764;9.172;2023-07-31T21:52:07;20.50;84.40
431;DHT22;202;48.764;9.172;2023-07-31T21:54:34;20.60;85.40
431;DHT22;202;48.764;9.172;2023-07-31T22:01:56;20.40;58.20
431;DHT22;202;48.764;9.172;2023-07-31T22:04:23;20.50;59.50
